Time;durP1;ratioP1;P1;durP2;ratioP2;P2;SDS_P1;SDS_P2;PMS_P1;PMS_P2;Temp;Humidity;BMP_temperature;BMP_pressure;BME280_temperature;BME280_humidity;BME280_pressure;Samples;Min_cycle;Max_cycle;Signal;HPM_P1;HPM_P2
2023/09/16 00:01:57;;;;;;;43.00;30.50;;;;;;;;;;5016104;28;20784;-71
2023/09/16 00:04:23;;;;;;;42.05;30.05;;;;;;;;;;5016900;28;20128;-71
2023/09/16 00:06:50;;;;;;;41.38;29.00;;;;;;;;;;5018040;28;20038;-70
2023/09/16 00:09:16;;;;;;;42.92;31.55;;;;;;;;;;5017394;28;20033;-70
2023/09/16 00:11:43;;;;;;;43.08;32.10;;;;;;;;;;5019719;28;20033;-71
2023/09/16 00:14:09;;;;;;;45.55;32.25;;;;;;;;;;5013108;28;20100;-70
2023/09/16 00:16:35;;;;;;;42.03;32.08;;;;;;;;;;5021832;28;20030;-71
2023/09/16 00:19:03;;;;;;;48.90;32.28;;;;;;;;;;5011118;28;20037;-71
2023/09/16 00:21:29;;;;;;;46.38;33.30;;;;;;;;;;5018858;28;20038;-72
2023/09/16 00:23:55;;;;;;;41.53;32.33;;;;;;;;;;5011735;28;20529;-72
2023/09/16 00:26:21;;;;;;;40.67;31.80;;;;;;;;;;5020532;28;20560;-71
2023/09/16 00:28:48;;;;;;;41.35;31.75;;;;;;;;;;5011463;28;20026;-71
2023/09/16 00:31:14;;;;;;;39.63;31.35;;;;;;;;;;5018313;28;20049;-71
2023/09/16 00:33:40;;;;;;;41.88;30.80;;;;;;;;;;5014237;28;20030;-71
2023/09/16 00:36:07;;;;;;;36.45;29.23;;;;;;;;;;5024419;28;20045;-72
2023/09/16 00:38:34;;;;;;;37.72;29.17;;;;;;;;;;5013212;28;20030;-72
2023/09/16 00:41:00;;;;;;;40.85;30.10;;;;;;;;;;5017649;28;20406;-72
2023/09/16 00:43:26;;;;;;;42.70;29.75;;;;;;;;;;5020040;28;20119;-72
2023/09/16 00:45:52;;;;;;;36.95;28.67;;;;;;;;;;5024288;28;20013;-72
2023/09/16 00:48:18;;;;;;;43.25;28.15;;;;;;;;;;5012949;28;20044;-72
2023/09/16 00:50:46;;;;;;;35.83;29.38;;;;;;;;;;5021486;28;20042;-70
2023/09/16 00:53:13;;;;;;;37.30;28.88;;;;;;;;;;5016684;28;20449;-71
2023/09/16 00:55:40;;;;;;;40.42;27.90;;;;;;;;;;5018631;28;20127;-71
2023/09/16 00:58:11;;;;;;;36.50;26.75;;;;;;;;;;5009260;28;20033;-70
2023/09/16 01:00:38;;;;;;;36.58;28.20;;;;;;;;;;5018592;28;20428;-70
2023/09/16 01:03:04;;;;;;;40.50;28.00;;;;;;;;;;5006052;28;20202;-70
2023/09/16 01:05:31;;;;;;;35.92;26.98;;;;;;;;;;5019857;28;20033;-71
2023/09/16 01:07:57;;;;;;;35.58;26.75;;;;;;;;;;5013884;28;20034;-74
2023/09/16 01:10:24;;;;;;;37.72;27.67;;;;;;;;;;5020754;28;20025;-70
2023/09/16 01:12:53;;;;;;;38.80;27.83;;;;;;;;;;5012813;28;20137;-71
2023/09/16 01:15:20;;;;;;;39.75;26.30;;;;;;;;;;5013765;28;20052;-71
2023/09/16 01:17:46;;;;;;;40.67;28.02;;;;;;;;;;5016348;28;20113;-71
2023/09/16 01:20:15;;;;;;;36.97;26.50;;;;;;;;;;5015745;28;20033;-71
2023/09/16 01:22:45;;;;;;;33.10;25.42;;;;;;;;;;5017235;28;20597;-71
2023/09/16 01:25:14;;;;;;;37.77;25.37;;;;;;;;;;5020057;28;20498;-71
2023/09/16 01:27:41;;;;;;;30.35;24.80;;;;;;;;;;5009462;28;20515;-71
2023/09/16 01:30:08;;;;;;;35.97;27.70;;;;;;;;;;5008224;28;20095;-71
2023/09/16 01:32:53;;;;;;;39.30;28.15;;;;;;;;;;5014221;28;20492;-71
2023/09/16 01:35:21;;;;;;;34.63;26.48;;;;;;;;;;5019207;28;20065;-71
2023/09/16 01:37:48;;;;;;;45.70;30.52;;;;;;;;;;5007825;28;20452;-71
2023/09/16 01:40:15;;;;;;;42.55;30.73;;;;;;;;;;5013773;28;20436;-71
2023/09/16 01:42:42;;;;;;;42.42;31.25;;;;;;;;;;5012273;28;20410;-71
2023/09/16 01:45:10;;;;;;;41.88;31.13;;;;;;;;;;5015758;28;20325;-71
2023/09/16 01:47:36;;;;;;;42.90;32.38;;;;;;;;;;5013242;28;20041;-71
2023/09/16 01:50:03;;;;;;;47.40;31.65;;;;;;;;;;5013013;28;20044;-70
2023/09/16 01:52:29;;;;;;;43.13;31.80;;;;;;;;;;5007932;28;20040;-71
2023/09/16 01:54:55;;;;;;;45.83;31.55;;;;;;;;;;5011181;28;20407;-71
2023/09/16 01:57:22;;;;;;;45.22;32.83;;;;;;;;;;5011381;28;20064;-71
2023/09/16 01:59:48;;;;;;;40.63;32.08;;;;;;;;;;5012116;28;20034;-71
2023/09/16 02:02:14;;;;;;;42.72;32.08;;;;;;;;;;5009155;28;20053;-70
2023/09/16 02:04:43;;;;;;;43.40;32.17;;;;;;;;;;5020149;28;20029;-71
2023/09/16 02:07:10;;;;;;;43.67;32.75;;;;;;;;;;5018488;28;20026;-71
2023/09/16 02:09:37;;;;;;;45.45;33.08;;;;;;;;;;5008925;28;20025;-71
2023/09/16 02:12:03;;;;;;;41.47;31.90;;;;;;;;;;5019721;28;20103;-71
2023/09/16 02:14:29;;;;;;;48.75;33.28;;;;;;;;;;5013116;28;20029;-71
2023/09/16 02:16:56;;;;;;;42.65;32.38;;;;;;;;;;5018160;28;20022;-71
2023/09/16 02:19:23;;;;;;;45.75;32.63;;;;;;;;;;5024355;28;20033;-71
2023/09/16 02:21:49;;;;;;;43.40;32.78;;;;;;;;;;5015831;28;20448;-71
2023/09/16 02:24:15;;;;;;;42.55;32.65;;;;;;;;;;5010264;28;20454;-71
2023/09/16 02:26:41;;;;;;;42.17;32.67;;;;;;;;;;5001344;28;20021;-71
2023/09/16 02:29:09;;;;;;;43.42;32.03;;;;;;;;;;5009628;28;20064;-71
2023/09/16 02:31:35;;;;;;;44.90;33.22;;;;;;;;;;5006945;28;20040;-71
2023/09/16 02:34:02;;;;;;;44.45;32.97;;;;;;;;;;5012644;28;20041;-73
2023/09/16 02:36:29;;;;;;;46.90;34.10;;;;;;;;;;5020457;28;20038;-71
2023/09/16 02:38:55;;;;;;;47.70;34.05;;;;;;;;;;5016565;28;20025;-72
2023/09/16 02:41:21;;;;;;;46.17;34.67;;;;;;;;;;5017706;28;20380;-71
2023/09/16 02:43:48;;;;;;;47.40;35.13;;;;;;;;;;4995943;28;20026;-70
2023/09/16 02:46:16;;;;;;;46.85;35.45;;;;;;;;;;5014814;28;20060;-70
2023/09/16 02:48:42;;;;;;;49.35;36.17;;;;;;;;;;5016551;28;20029;-70
2023/09/16 02:51:09;;;;;;;55.97;36.65;;;;;;;;;;5014624;28;20057;-71
2023/09/16 02:53:39;;;;;;;46.42;34.80;;;;;;;;;;5010981;28;20025;-71
2023/09/16 02:56:08;;;;;;;43.58;34.70;;;;;;;;;;5016210;28;20341;-71
2023/09/16 02:58:34;;;;;;;53.33;37.63;;;;;;;;;;5014494;28;20033;-71
2023/09/16 03:01:08;;;;;;;52.40;37.15;;;;;;;;;;5017063;28;20034;-71
2023/09/16 03:03:35;;;;;;;49.15;36.70;;;;;;;;;;5030959;28;20060;-71
2023/09/16 03:06:01;;;;;;;47.15;35.92;;;;;;;;;;5002643;28;20041;-70
2023/09/16 03:08:28;;;;;;;48.17;36.03;;;;;;;;;;5015699;28;20033;-70
2023/09/16 03:10:59;;;;;;;48.65;33.08;;;;;;;;;;5020207;28;20021;-71
2023/09/16 03:13:27;;;;;;;40.33;31.02;;;;;;;;;;5012180;28;20034;-71
2023/09/16 03:16:12;;;;;;;37.92;28.52;;;;;;;;;;5019801;28;20034;-71
2023/09/16 03:18:38;;;;;;;43.42;31.85;;;;;;;;;;5013078;28;20026;-70
2023/09/16 03:21:04;;;;;;;37.55;28.45;;;;;;;;;;5015788;28;20033;-70
2023/09/16 03:23:30;;;;;;;41.65;30.30;;;;;;;;;;4999266;28;20063;-71
2023/09/16 03:25:56;;;;;;;59.70;43.53;;;;;;;;;;5021675;28;20034;-70
2023/09/16 03:28:22;;;;;;;57.60;41.33;;;;;;;;;;5016967;28;20026;-70
2023/09/16 03:30:49;;;;;;;59.38;40.92;;;;;;;;;;5014015;28;20060;-70
2023/09/16 03:33:15;;;;;;;61.63;42.25;;;;;;;;;;5031860;28;20133;-71
2023/09/16 03:35:41;;;;;;;64.85;45.53;;;;;;;;;;5019257;28;20100;-71
2023/09/16 03:38:07;;;;;;;63.55;42.70;;;;;;;;;;5019472;28;20034;-71
2023/09/16 03:40:33;;;;;;;62.25;43.70;;;;;;;;;;5022059;28;20038;-71
2023/09/16 03:43:00;;;;;;;60.65;43.45;;;;;;;;;;5016980;28;20034;-71
2023/09/16 03:45:26;;;;;;;60.47;42.55;;;;;;;;;;5024057;28;20443;-71
2023/09/16 03:47:52;;;;;;;61.70;43.30;;;;;;;;;;5015338;28;20113;-70
2023/09/16 03:50:18;;;;;;;59.45;41.63;;;;;;;;;;5021929;28;20239;-71
2023/09/16 03:52:47;;;;;;;62.55;41.50;;;;;;;;;;5003153;28;20037;-70
2023/09/16 03:55:14;;;;;;;59.90;42.65;;;;;;;;;;5018520;28;20104;-71
2023/09/16 03:57:40;;;;;;;62.58;41.28;;;;;;;;;;5018877;28;20431;-71
2023/09/16 04:00:07;;;;;;;60.88;41.70;;;;;;;;;;5014633;28;20042;-71
2023/09/16 04:02:41;;;;;;;;;;;;;;;;;;5013335;28;20149;-71
2023/09/16 04:05:07;;;;;;;58.78;41.67;;;;;;;;;;5027945;28;20405;-71
2023/09/16 04:07:34;;;;;;;60.75;41.17;;;;;;;;;;5014102;28;20029;-71
2023/09/16 04:10:00;;;;;;;59.35;40.55;;;;;;;;;;5018544;28;20025;-72
2023/09/16 04:12:27;;;;;;;58.80;41.95;;;;;;;;;;5014509;28;20049;-71
2023/09/16 04:14:53;;;;;;;62.10;43.33;;;;;;;;;;5025916;28;20128;-71
2023/09/16 04:17:20;;;;;;;63.92;43.33;;;;;;;;;;5019023;28;20088;-71
2023/09/16 04:19:48;;;;;;;65.40;44.75;;;;;;;;;;5012903;28;20045;-71
2023/09/16 04:22:14;;;;;;;64.18;44.08;;;;;;;;;;5016548;28;20400;-72
2023/09/16 04:24:40;;;;;;;63.40;43.88;;;;;;;;;;5009800;28;20044;-71
2023/09/16 04:27:08;;;;;;;63.85;44.78;;;;;;;;;;5014650;28;20018;-71
2023/09/16 04:29:34;;;;;;;57.97;43.03;;;;;;;;;;5019346;28;20034;-71
2023/09/16 04:32:01;;;;;;;59.50;43.38;;;;;;;;;;5017434;28;20049;-71
2023/09/16 04:34:27;;;;;;;64.72;43.88;;;;;;;;;;5010929;28;20036;-71
2023/09/16 04:36:58;;;;;;;61.33;42.67;;;;;;;;;;5015823;28;20037;-71
2023/09/16 04:39:26;;;;;;;66.50;44.30;;;;;;;;;;5017344;28;20030;-72
2023/09/16 04:41:55;;;;;;;61.75;42.90;;;;;;;;;;5033029;28;20092;-71
2023/09/16 04:44:23;;;;;;;63.27;43.20;;;;;;;;;;5015946;28;20095;-72
2023/09/16 04:46:53;;;;;;;53.90;37.83;;;;;;;;;;5020493;28;20029;-70
2023/09/16 04:49:20;;;;;;;54.65;35.50;;;;;;;;;;5012756;28;20033;-70
2023/09/16 04:51:46;;;;;;;40.70;30.02;;;;;;;;;;5016249;28;20057;-71
2023/09/16 04:54:12;;;;;;;45.00;33.75;;;;;;;;;;5002374;28;20407;-72
2023/09/16 04:56:38;;;;;;;47.17;34.55;;;;;;;;;;5019596;28;20041;-72
2023/09/16 04:59:08;;;;;;;44.97;33.60;;;;;;;;;;5033735;28;20030;-72
2023/09/16 05:01:36;;;;;;;47.55;35.78;;;;;;;;;;5020423;28;20034;-72
2023/09/16 05:04:02;;;;;;;50.83;36.72;;;;;;;;;;5012378;28;20037;-72
2023/09/16 05:06:31;;;;;;;52.25;36.70;;;;;;;;;;5018238;28;20029;-71
2023/09/16 05:08:57;;;;;;;59.60;40.75;;;;;;;;;;5010976;28;20055;-71
2023/09/16 05:11:23;;;;;;;76.45;46.65;;;;;;;;;;5008888;28;20045;-71
2023/09/16 05:13:53;;;;;;;77.07;49.67;;;;;;;;;;5021893;28;20056;-71
2023/09/16 05:16:19;;;;;;;86.05;52.08;;;;;;;;;;5004628;28;20084;-71
2023/09/16 05:18:45;;;;;;;86.50;53.72;;;;;;;;;;5009567;28;20050;-71
2023/09/16 05:21:11;;;;;;;81.55;51.85;;;;;;;;;;5014851;28;20245;-72
2023/09/16 05:23:37;;;;;;;80.07;52.33;;;;;;;;;;5008678;28;20039;-71
2023/09/16 05:26:06;;;;;;;67.53;48.72;;;;;;;;;;5021323;28;20487;-72
2023/09/16 05:28:35;;;;;;;71.82;49.80;;;;;;;;;;5008940;28;20175;-71
2023/09/16 05:31:04;;;;;;;74.63;48.20;;;;;;;;;;5018716;28;20037;-71
2023/09/16 05:33:31;;;;;;;73.57;48.95;;;;;;;;;;5007458;28;20154;-71
2023/09/16 05:35:57;;;;;;;71.90;47.53;;;;;;;;;;5003364;28;20380;-73
2023/09/16 05:38:24;;;;;;;77.00;49.58;;;;;;;;;;5010286;28;20045;-73
2023/09/16 05:40:50;;;;;;;75.85;51.30;;;;;;;;;;5017498;28;20116;-71
2023/09/16 05:43:18;;;;;;;70.43;47.67;;;;;;;;;;5013110;28;20034;-71
2023/09/16 05:45:49;;;;;;;79.50;50.35;;;;;;;;;;5016506;28;20017;-71
2023/09/16 05:48:15;;;;;;;77.97;50.17;;;;;;;;;;5010608;28;20410;-71
2023/09/16 05:50:43;;;;;;;79.03;51.78;;;;;;;;;;4994571;28;20133;-70
2023/09/16 05:53:10;;;;;;;85.30;54.05;;;;;;;;;;5012230;28;20029;-70
2023/09/16 05:55:39;;;;;;;85.90;54.75;;;;;;;;;;5012094;28;20059;-70
2023/09/16 05:58:11;;;;;;;78.53;52.00;;;;;;;;;;5005206;28;20042;-70
2023/09/16 06:00:38;;;;;;;72.47;49.67;;;;;;;;;;5013071;28;20533;-70
2023/09/16 06:03:05;;;;;;;72.07;48.03;;;;;;;;;;5013580;28;20037;-70
2023/09/16 06:05:33;;;;;;;68.95;46.55;;;;;;;;;;5016813;28;20057;-70
2023/09/16 06:08:00;;;;;;;81.72;52.33;;;;;;;;;;5007591;28;20029;-71
2023/09/16 06:10:26;;;;;;;87.07;54.28;;;;;;;;;;5015230;28;20212;-70
2023/09/16 06:12:53;;;;;;;76.40;51.80;;;;;;;;;;5006311;28;20029;-71
2023/09/16 06:15:19;;;;;;;79.13;49.78;;;;;;;;;;5007430;28;20088;-71
2023/09/16 06:17:45;;;;;;;72.13;48.58;;;;;;;;;;5014185;28;20045;-72
2023/09/16 06:20:11;;;;;;;66.18;47.38;;;;;;;;;;5007054;28;20045;-72
2023/09/16 06:22:38;;;;;;;62.38;46.40;;;;;;;;;;5010789;28;20036;-70
2023/09/16 06:25:04;;;;;;;60.40;42.83;;;;;;;;;;5006278;28;20037;-71
2023/09/16 06:27:30;;;;;;;58.75;42.53;;;;;;;;;;5005537;28;20045;-71
2023/09/16 06:29:57;;;;;;;51.20;37.65;;;;;;;;;;5006896;28;20072;-70
2023/09/16 06:32:24;;;;;;;48.28;34.53;;;;;;;;;;5001697;28;20038;-70
2023/09/16 06:34:53;;;;;;;48.17;33.78;;;;;;;;;;4999354;28;20041;-71
2023/09/16 06:37:19;;;;;;;38.35;29.42;;;;;;;;;;4998117;28;20046;-71
2023/09/16 06:39:47;;;;;;;38.45;28.02;;;;;;;;;;5003026;28;20068;-71
2023/09/16 06:42:16;;;;;;;31.57;25.27;;;;;;;;;;5006629;28;20026;-72
2023/09/16 06:44:42;;;;;;;33.97;23.70;;;;;;;;;;5011051;28;20026;-71
2023/09/16 06:47:08;;;;;;;31.02;24.60;;;;;;;;;;5012626;28;20033;-72
2023/09/16 06:49:34;;;;;;;32.03;25.58;;;;;;;;;;5005879;28;20547;-71
2023/09/16 06:52:00;;;;;;;35.33;24.98;;;;;;;;;;5006676;28;20145;-70
2023/09/16 06:54:27;;;;;;;34.50;25.83;;;;;;;;;;4997114;28;20038;-69
2023/09/16 06:56:53;;;;;;;33.97;24.88;;;;;;;;;;4993693;28;20026;-69
2023/09/16 06:59:19;;;;;;;38.03;25.58;;;;;;;;;;5017681;28;20125;-70
2023/09/16 07:01:45;;;;;;;32.05;25.33;;;;;;;;;;5004982;28;20044;-70
2023/09/16 07:04:11;;;;;;;36.30;25.50;;;;;;;;;;4996800;28;20113;-71
2023/09/16 07:06:37;;;;;;;33.17;24.15;;;;;;;;;;4993599;28;20049;-70
2023/09/16 07:09:03;;;;;;;35.85;25.52;;;;;;;;;;5005671;28;20070;-70
2023/09/16 07:11:30;;;;;;;31.05;24.98;;;;;;;;;;5005128;28;20511;-69
2023/09/16 07:13:56;;;;;;;39.03;24.88;;;;;;;;;;5001658;28;20527;-70
2023/09/16 07:16:22;;;;;;;31.65;23.40;;;;;;;;;;5011338;28;20120;-70
2023/09/16 07:18:48;;;;;;;29.70;22.27;;;;;;;;;;5006180;28;20030;-70
2023/09/16 07:21:14;;;;;;;32.58;23.50;;;;;;;;;;5013104;28;20124;-71
2023/09/16 07:23:40;;;;;;;31.65;23.83;;;;;;;;;;5004847;28;20119;-71
2023/09/16 07:26:07;;;;;;;34.42;22.90;;;;;;;;;;5012687;28;20036;-71
2023/09/16 07:28:33;;;;;;;29.30;21.73;;;;;;;;;;5006786;28;20101;-70
2023/09/16 07:30:59;;;;;;;31.38;23.15;;;;;;;;;;5008857;28;20048;-70
2023/09/16 07:33:25;;;;;;;30.10;21.75;;;;;;;;;;5009186;28;20038;-69
2023/09/16 07:35:52;;;;;;;27.52;22.23;;;;;;;;;;5011006;28;20462;-71
2023/09/16 07:38:19;;;;;;;31.48;21.92;;;;;;;;;;5006278;28;20050;-71
2023/09/16 07:40:45;;;;;;;27.67;21.48;;;;;;;;;;5002501;28;20077;-70
2023/09/16 07:43:11;;;;;;;27.75;20.75;;;;;;;;;;5008053;28;20034;-71
2023/09/16 07:45:38;;;;;;;27.45;20.48;;;;;;;;;;5003311;28;20029;-70
2023/09/16 07:48:07;;;;;;;26.52;20.05;;;;;;;;;;5010742;28;20026;-71
2023/09/16 07:50:33;;;;;;;28.88;21.65;;;;;;;;;;5012163;28;20041;-70
2023/09/16 07:52:59;;;;;;;31.55;21.05;;;;;;;;;;5006777;28;20495;-70
2023/09/16 07:55:26;;;;;;;24.52;19.25;;;;;;;;;;5009481;28;20225;-71
2023/09/16 07:57:52;;;;;;;25.05;19.85;;;;;;;;;;5009005;28;20030;-70
2023/09/16 08:00:18;;;;;;;24.45;17.63;;;;;;;;;;4993734;28;20396;-70
2023/09/16 08:02:44;;;;;;;30.15;17.67;;;;;;;;;;4998603;28;20038;-70
2023/09/16 08:05:10;;;;;;;24.60;16.17;;;;;;;;;;5003933;28;20034;-70
2023/09/16 08:07:37;;;;;;;22.48;15.52;;;;;;;;;;5008709;28;20030;-70
2023/09/16 08:10:03;;;;;;;20.95;16.13;;;;;;;;;;5010407;28;20029;-71
2023/09/16 08:12:29;;;;;;;21.13;16.05;;;;;;;;;;5007764;28;20399;-70
2023/09/16 08:14:55;;;;;;;20.50;16.02;;;;;;;;;;5007701;28;20411;-71
2023/09/16 08:17:21;;;;;;;20.17;14.65;;;;;;;;;;5008462;28;20038;-70
2023/09/16 08:19:48;;;;;;;17.75;14.55;;;;;;;;;;5005256;28;20033;-70
2023/09/16 08:22:14;;;;;;;21.52;14.77;;;;;;;;;;5008744;28;20034;-72
2023/09/16 08:24:40;;;;;;;26.00;14.90;;;;;;;;;;5006887;28;20399;-71
2023/09/16 08:27:06;;;;;;;21.52;14.05;;;;;;;;;;5007167;28;20034;-70
2023/09/16 08:29:32;;;;;;;17.75;13.27;;;;;;;;;;5005995;28;20116;-71
2023/09/16 08:31:58;;;;;;;18.27;13.63;;;;;;;;;;5010242;28;20107;-69
2023/09/16 08:34:24;;;;;;;17.55;13.20;;;;;;;;;;4996517;28;20407;-70
2023/09/16 08:36:50;;;;;;;19.60;13.63;;;;;;;;;;5005693;28;20442;-71
2023/09/16 08:39:16;;;;;;;18.00;13.02;;;;;;;;;;5009989;28;20030;-71
2023/09/16 08:41:49;;;;;;;16.65;12.73;;;;;;;;;;5008872;28;20030;-70
2023/09/16 08:44:16;;;;;;;20.00;12.52;;;;;;;;;;5003690;28;20049;-71
2023/09/16 08:46:46;;;;;;;14.68;11.63;;;;;;;;;;5008064;28;20042;-71
2023/09/16 08:49:14;;;;;;;18.17;12.82;;;;;;;;;;5005797;28;20120;-71
2023/09/16 08:51:43;;;;;;;16.17;11.90;;;;;;;;;;4991567;28;20053;-71
2023/09/16 08:54:10;;;;;;;15.07;12.40;;;;;;;;;;5002751;28;20049;-72
2023/09/16 08:56:36;;;;;;;16.70;11.55;;;;;;;;;;5009345;28;20046;-71
2023/09/16 08:59:02;;;;;;;17.50;11.93;;;;;;;;;;5009077;28;20034;-70
2023/09/16 09:01:29;;;;;;;53.60;19.40;;;;;;;;;;5011302;28;20050;-70
2023/09/16 09:03:55;;;;;;;15.25;11.05;;;;;;;;;;5008812;28;20028;-71
2023/09/16 09:06:23;;;;;;;14.15;10.85;;;;;;;;;;5009682;28;20104;-71
2023/09/16 09:08:49;;;;;;;14.73;10.85;;;;;;;;;;5006858;28;20076;-71
2023/09/16 09:11:15;;;;;;;13.43;10.65;;;;;;;;;;4992117;28;20034;-70
2023/09/16 09:13:43;;;;;;;11.65;9.75;;;;;;;;;;4991463;28;20065;-70
2023/09/16 09:16:09;;;;;;;14.05;9.98;;;;;;;;;;4990446;28;20114;-72
2023/09/16 09:18:36;;;;;;;15.73;9.60;;;;;;;;;;4998648;28;20100;-72
2023/09/16 09:21:04;;;;;;;13.98;10.77;;;;;;;;;;5009795;28;20041;-70
2023/09/16 09:23:31;;;;;;;12.13;9.70;;;;;;;;;;5011069;28;20034;-71
2023/09/16 09:25:57;;;;;;;17.80;10.80;;;;;;;;;;5007996;28;20041;-70
2023/09/16 09:28:23;;;;;;;12.48;9.68;;;;;;;;;;4998336;28;20030;-70
2023/09/16 09:30:50;;;;;;;14.60;10.60;;;;;;;;;;5010620;28;20164;-71
2023/09/16 09:33:20;;;;;;;18.65;10.10;;;;;;;;;;5003427;28;20050;-71
2023/09/16 09:35:46;;;;;;;14.43;9.98;;;;;;;;;;5004873;28;20120;-71
2023/09/16 09:38:14;;;;;;;13.40;9.57;;;;;;;;;;5004960;28;20148;-71
2023/09/16 09:40:42;;;;;;;11.88;8.52;;;;;;;;;;5005778;28;20034;-71
2023/09/16 09:43:08;;;;;;;14.75;9.27;;;;;;;;;;5003748;28;20367;-72
2023/09/16 09:45:38;;;;;;;12.98;7.75;;;;;;;;;;5010460;28;20034;-71
2023/09/16 09:48:04;;;;;;;12.80;8.88;;;;;;;;;;4999704;28;20030;-71
2023/09/16 09:50:30;;;;;;;12.63;9.20;;;;;;;;;;5008140;28;20042;-71
2023/09/16 09:52:57;;;;;;;11.80;8.43;;;;;;;;;;5005183;28;20046;-72
2023/09/16 09:55:24;;;;;;;11.90;8.95;;;;;;;;;;5002659;28;20508;-70
2023/09/16 09:57:51;;;;;;;10.43;7.70;;;;;;;;;;5004758;28;20033;-70
2023/09/16 10:00:18;;;;;;;11.43;7.15;;;;;;;;;;5010786;28;20034;-71
2023/09/16 10:02:44;;;;;;;8.82;6.45;;;;;;;;;;5007572;28;20487;-70
2023/09/16 10:05:15;;;;;;;13.98;7.05;;;;;;;;;;5005769;28;20084;-71
2023/09/16 10:07:45;;;;;;;12.20;7.00;;;;;;;;;;5010187;28;20033;-72
2023/09/16 10:10:16;;;;;;;9.60;6.03;;;;;;;;;;5010262;28;20056;-70
2023/09/16 10:12:43;;;;;;;10.82;7.50;;;;;;;;;;5008335;28;20022;-71
2023/09/16 10:15:09;;;;;;;9.10;4.60;;;;;;;;;;5009561;28;20041;-71
2023/09/16 10:17:35;;;;;;;8.38;4.28;;;;;;;;;;5008476;28;20038;-70
2023/09/16 10:20:02;;;;;;;8.43;5.32;;;;;;;;;;5009707;28;20042;-71
2023/09/16 10:22:29;;;;;;;6.93;4.93;;;;;;;;;;5009666;28;20041;-71
2023/09/16 10:24:56;;;;;;;8.68;5.75;;;;;;;;;;5001879;28;20061;-70
2023/09/16 10:27:28;;;;;;;12.05;5.13;;;;;;;;;;5007733;28;20034;-70
2023/09/16 10:29:56;;;;;;;7.10;4.43;;;;;;;;;;5010016;28;20116;-71
2023/09/16 10:32:22;;;;;;;7.80;4.50;;;;;;;;;;5003743;28;20029;-70
2023/09/16 10:34:49;;;;;;;12.88;5.05;;;;;;;;;;5008953;28;20044;-71
2023/09/16 10:37:19;;;;;;;10.30;4.40;;;;;;;;;;5009912;28;20033;-71
2023/09/16 10:39:46;;;;;;;8.32;5.10;;;;;;;;;;5000088;28;20022;-71
2023/09/16 10:42:22;;;;;;;9.25;4.65;;;;;;;;;;4991881;28;20498;-70
2023/09/16 10:44:48;;;;;;;10.48;5.28;;;;;;;;;;4992883;28;20022;-70
2023/09/16 10:47:17;;;;;;;7.57;4.95;;;;;;;;;;4997978;28;20046;-71
2023/09/16 10:49:46;;;;;;;7.47;5.07;;;;;;;;;;5008603;28;20498;-70
2023/09/16 10:52:18;;;;;;;10.40;5.18;;;;;;;;;;5008333;28;20312;-70
2023/09/16 10:55:03;;;;;;;18.83;6.05;;;;;;;;;;5010415;28;20113;-71
2023/09/16 10:57:37;;;;;;;8.00;5.63;;;;;;;;;;5009199;28;20505;-70
2023/09/16 11:00:04;;;;;;;10.32;6.05;;;;;;;;;;5009054;28;20496;-75
2023/09/16 11:02:30;;;;;;;15.05;6.03;;;;;;;;;;5010008;28;20037;-71
2023/09/16 11:04:56;;;;;;;10.98;5.55;;;;;;;;;;5010589;28;20331;-71
2023/09/16 11:07:22;;;;;;;18.42;6.30;;;;;;;;;;5009352;28;20042;-71
2023/09/16 11:09:50;;;;;;;11.82;5.72;;;;;;;;;;5010092;28;20030;-71
2023/09/16 11:12:18;;;;;;;11.90;6.75;;;;;;;;;;5010174;28;20026;-71
2023/09/16 11:14:44;;;;;;;10.15;6.28;;;;;;;;;;5006481;28;20026;-71
2023/09/16 11:17:14;;;;;;;13.68;6.68;;;;;;;;;;5005758;28;20034;-70
2023/09/16 11:19:41;;;;;;;14.18;6.13;;;;;;;;;;5009768;28;20018;-70
2023/09/16 11:22:08;;;;;;;8.20;5.13;;;;;;;;;;5009097;28;20030;-69
2023/09/16 11:24:35;;;;;;;7.47;4.93;;;;;;;;;;5006878;28;20446;-70
2023/09/16 11:27:01;;;;;;;8.65;5.07;;;;;;;;;;5002598;28;20026;-70
2023/09/16 11:29:33;;;;;;;11.75;6.38;;;;;;;;;;4997853;28;20034;-70
2023/09/16 11:32:03;;;;;;;7.82;5.22;;;;;;;;;;5004112;28;20093;-70
2023/09/16 11:34:30;;;;;;;16.38;6.07;;;;;;;;;;5005922;28;20080;-70
2023/09/16 11:37:01;;;;;;;10.25;5.82;;;;;;;;;;5005002;28;20339;-70
2023/09/16 11:39:34;;;;;;;11.18;5.82;;;;;;;;;;5010483;28;20052;-70
2023/09/16 11:42:02;;;;;;;8.10;4.80;;;;;;;;;;5003702;28;20054;-70
2023/09/16 11:44:28;;;;;;;13.60;4.63;;;;;;;;;;5003208;28;20027;-71
2023/09/16 11:46:55;;;;;;;7.18;4.60;;;;;;;;;;5007306;28;20026;-70
2023/09/16 11:49:21;;;;;;;9.82;4.70;;;;;;;;;;5010091;28;20038;-70
2023/09/16 11:51:51;;;;;;;10.73;4.38;;;;;;;;;;5009966;28;20466;-71
2023/09/16 11:54:17;;;;;;;7.07;4.93;;;;;;;;;;5006708;28;20026;-71
2023/09/16 11:56:44;;;;;;;8.50;5.10;;;;;;;;;;5009783;28;20547;-71
2023/09/16 11:59:11;;;;;;;7.95;4.50;;;;;;;;;;5011084;28;20391;-72
2023/09/16 12:01:40;;;;;;;10.70;4.03;;;;;;;;;;5006992;28;20129;-70
2023/09/16 12:04:08;;;;;;;8.97;3.80;;;;;;;;;;5000487;28;20124;-70
2023/09/16 12:06:35;;;;;;;10.43;4.43;;;;;;;;;;5010480;28;20036;-70
2023/09/16 12:09:05;;;;;;;7.15;4.20;;;;;;;;;;5007761;28;20047;-71
2023/09/16 12:11:32;;;;;;;10.02;4.20;;;;;;;;;;5005287;28;20080;-71
2023/09/16 12:14:00;;;;;;;7.82;4.03;;;;;;;;;;5000541;28;20072;-71
2023/09/16 12:16:26;;;;;;;8.48;3.85;;;;;;;;;;5011170;28;20092;-70
2023/09/16 12:18:52;;;;;;;5.63;3.40;;;;;;;;;;5003484;28;20364;-71
2023/09/16 12:21:18;;;;;;;9.27;3.45;;;;;;;;;;5001356;28;20393;-70
2023/09/16 12:23:51;;;;;;;6.28;3.10;;;;;;;;;;5005384;28;20025;-70
2023/09/16 12:26:17;;;;;;;6.30;3.60;;;;;;;;;;5010261;28;20259;-70
2023/09/16 12:28:43;;;;;;;4.40;2.83;;;;;;;;;;5008062;28;20037;-70
2023/09/16 12:31:11;;;;;;;5.43;2.58;;;;;;;;;;5012217;28;20034;-73
2023/09/16 12:33:48;;;;;;;5.13;2.60;;;;;;;;;;5012746;28;20395;-70
2023/09/16 12:36:15;;;;;;;10.05;2.50;;;;;;;;;;5011832;28;20038;-73
2023/09/16 12:38:42;;;;;;;8.18;2.40;;;;;;;;;;5003898;28;20045;-72
2023/09/16 12:41:08;;;;;;;4.85;2.88;;;;;;;;;;5005512;28;20036;-70
2023/09/16 12:43:35;;;;;;;8.32;3.00;;;;;;;;;;5001249;28;20049;-70
2023/09/16 12:46:02;;;;;;;6.85;2.40;;;;;;;;;;5009578;28;20034;-71
2023/09/16 12:48:29;;;;;;;4.97;2.67;;;;;;;;;;5002436;28;20034;-71
2023/09/16 12:50:56;;;;;;;3.78;2.53;;;;;;;;;;5002740;28;20045;-70
2023/09/16 12:53:25;;;;;;;3.05;2.50;;;;;;;;;;5008891;28;20068;-70
2023/09/16 12:55:51;;;;;;;5.38;2.70;;;;;;;;;;5006743;28;20038;-70
2023/09/16 12:58:18;;;;;;;7.20;2.80;;;;;;;;;;5000227;28;20114;-71
2023/09/16 13:00:44;;;;;;;5.07;2.97;;;;;;;;;;5006822;28;20052;-71
2023/09/16 13:03:10;;;;;;;7.28;2.97;;;;;;;;;;5004489;28;20113;-71
2023/09/16 13:05:38;;;;;;;9.65;3.00;;;;;;;;;;5004719;28;20042;-71
2023/09/16 13:08:05;;;;;;;5.00;3.17;;;;;;;;;;5001100;28;20085;-71
2023/09/16 13:10:32;;;;;;;5.57;3.00;;;;;;;;;;4997160;28;20030;-70
2023/09/16 13:12:58;;;;;;;8.23;3.60;;;;;;;;;;5010579;28;20451;-71
2023/09/16 13:15:25;;;;;;;8.45;3.70;;;;;;;;;;5010039;28;20026;-71
2023/09/16 13:17:57;;;;;;;7.72;3.55;;;;;;;;;;5010829;28;20060;-70
2023/09/16 13:20:24;;;;;;;6.55;3.95;;;;;;;;;;5006250;28;20069;-70
2023/09/16 13:22:57;;;;;;;5.53;3.15;;;;;;;;;;5007418;28;20125;-70
2023/09/16 13:25:29;;;;;;;5.72;3.20;;;;;;;;;;5010757;28;20034;-70
2023/09/16 13:27:56;;;;;;;7.93;3.63;;;;;;;;;;5010792;28;20037;-71
2023/09/16 13:30:23;;;;;;;13.55;3.70;;;;;;;;;;5009543;28;20503;-70
2023/09/16 13:32:52;;;;;;;7.50;3.42;;;;;;;;;;5010289;28;20076;-70
2023/09/16 13:35:19;;;;;;;5.35;2.90;;;;;;;;;;5008457;28;20057;-70
2023/09/16 13:37:45;;;;;;;4.82;3.28;;;;;;;;;;5010330;28;20040;-69
2023/09/16 13:40:15;;;;;;;9.23;3.30;;;;;;;;;;5010425;28;20057;-70
2023/09/16 13:42:41;;;;;;;5.93;3.35;;;;;;;;;;5007715;28;20034;-70
2023/09/16 13:45:08;;;;;;;13.55;3.60;;;;;;;;;;5005408;28;20080;-70
2023/09/16 13:47:34;;;;;;;4.15;2.90;;;;;;;;;;5010588;28;20495;-70
2023/09/16 13:50:00;;;;;;;7.50;3.88;;;;;;;;;;5010472;28;20034;-70
2023/09/16 13:52:26;;;;;;;6.93;3.97;;;;;;;;;;5010259;28;20049;-71
2023/09/16 13:54:52;;;;;;;10.10;3.63;;;;;;;;;;5010861;28;20129;-70
2023/09/16 13:57:19;;;;;;;5.43;3.60;;;;;;;;;;5010010;28;20069;-71
2023/09/16 13:59:45;;;;;;;7.75;4.00;;;;;;;;;;5008001;28;20026;-71
2023/09/16 14:02:12;;;;;;;7.00;3.75;;;;;;;;;;5008582;28;20065;-70
2023/09/16 14:04:38;;;;;;;5.70;3.33;;;;;;;;;;5010497;28;20133;-70
2023/09/16 14:07:04;;;;;;;8.38;3.63;;;;;;;;;;5010680;28;20034;-70
2023/09/16 14:09:31;;;;;;;5.43;3.33;;;;;;;;;;5010374;28;20041;-70
2023/09/16 14:11:57;;;;;;;7.35;3.45;;;;;;;;;;5008912;28;20180;-70
2023/09/16 14:14:23;;;;;;;7.20;3.40;;;;;;;;;;5009371;28;20033;-70
2023/09/16 14:16:49;;;;;;;5.32;3.20;;;;;;;;;;5010411;28;20121;-70
2023/09/16 14:19:16;;;;;;;6.75;3.03;;;;;;;;;;5010540;28;20491;-70
2023/09/16 14:21:42;;;;;;;6.45;3.47;;;;;;;;;;5009584;28;20026;-71
2023/09/16 14:24:08;;;;;;;8.23;3.50;;;;;;;;;;5006892;28;20122;-69